sensor_id;sensor_type;location;lat;lon;timestamp;P1;durP1;ratioP1;P2;durP2;ratioP2
35558;SDS011;21661;50.794;-1.066;2022-12-07T00:00:26;31.27;;;14.93;;
35558;SDS011;21661;50.794;-1.066;2022-12-07T00:02:52;32.50;;;16.35;;
35558;SDS011;21661;50.794;-1.066;2022-12-07T00:05:18;31.42;;;15.40;;
35558;SDS011;21661;50.794;-1.066;2022-12-07T00:07:43;29.80;;;15.48;;
35558;SDS011;21661;50.794;-1.066;2022-12-07T00:10:09;31.58;;;16.67;;
35558;SDS011;21661;50.794;-1.066;2022-12-07T00:12:34;32.75;;;17.33;;
35558;SDS011;21661;50.794;-1.066;2022-12-07T00:15:00;32.20;;;16.35;;
35558;SDS011;21661;50.794;-1.066;2022-12-07T00:17:26;32.85;;;17.05;;
35558;SDS011;21661;50.794;-1.066;2022-12-07T00:19:51;33.13;;;17.40;;
35558;SDS011;21661;50.794;-1.066;2022-12-07T00:22:17;35.47;;;17.05;;
35558;SDS011;21661;50.794;-1.066;2022-12-07T00:24:42;31.77;;;16.27;;
35558;SDS011;21661;50.794;-1.066;2022-12-07T00:27:08;34.10;;;16.92;;
35558;SDS011;21661;50.794;-1.066;2022-12-07T00:29:33;33.03;;;16.92;;
35558;SDS011;21661;50.794;-1.066;2022-12-07T00:31:59;29.77;;;16.23;;
35558;SDS011;21661;50.794;-1.066;2022-12-07T00:34:24;32.25;;;16.00;;
35558;SDS011;21661;50.794;-1.066;2022-12-07T00:36:50;33.28;;;16.40;;
35558;SDS011;21661;50.794;-1.066;2022-12-07T00:39:16;36.97;;;17.23;;
35558;SDS011;21661;50.794;-1.066;2022-12-07T00:41:41;33.17;;;17.23;;
35558;SDS011;21661;50.794;-1.066;2022-12-07T00:44:07;34.33;;;16.60;;
35558;SDS011;21661;50.794;-1.066;2022-12-07T00:46:32;33.67;;;15.18;;
35558;SDS011;21661;50.794;-1.066;2022-12-07T00:48:58;38.17;;;15.63;;
35558;SDS011;21661;50.794;-1.066;2022-12-07T00:51:24;32.95;;;16.90;;
35558;SDS011;21661;50.794;-1.066;2022-12-07T00:53:50;34.45;;;16.13;;
35558;SDS011;21661;50.794;-1.066;2022-12-07T00:56:18;34.80;;;16.60;;
35558;SDS011;21661;50.794;-1.066;2022-12-07T00:58:50;38.00;;;16.38;;
35558;SDS011;21661;50.794;-1.066;2022-12-07T01:01:17;34.63;;;17.05;;
35558;SDS011;21661;50.794;-1.066;2022-12-07T01:03:43;35.65;;;17.38;;
35558;SDS011;21661;50.794;-1.066;2022-12-07T01:06:08;33.60;;;16.65;;
35558;SDS011;21661;50.794;-1.066;2022-12-07T01:08:34;36.58;;;16.27;;
35558;SDS011;21661;50.794;-1.066;2022-12-07T01:11:04;37.83;;;18.15;;
35558;SDS011;21661;50.794;-1.066;2022-12-07T01:13:32;38.80;;;18.23;;
35558;SDS011;21661;50.794;-1.066;2022-12-07T01:15:59;35.65;;;16.50;;
35558;SDS011;21661;50.794;-1.066;2022-12-07T01:18:27;36.33;;;16.02;;
35558;SDS011;21661;50.794;-1.066;2022-12-07T01:20:58;35.25;;;16.23;;
35558;SDS011;21661;50.794;-1.066;2022-12-07T01:23:24;34.90;;;16.48;;
35558;SDS011;21661;50.794;-1.066;2022-12-07T01:25:57;35.97;;;16.45;;
35558;SDS011;21661;50.794;-1.066;2022-12-07T01:28:24;36.03;;;17.38;;
35558;SDS011;21661;50.794;-1.066;2022-12-07T01:30:56;36.38;;;16.13;;
35558;SDS011;21661;50.794;-1.066;2022-12-07T01:33:23;37.85;;;17.25;;
35558;SDS011;21661;50.794;-1.066;2022-12-07T01:35:49;33.03;;;16.02;;
35558;SDS011;21661;50.794;-1.066;2022-12-07T01:38:14;35.33;;;16.83;;
35558;SDS011;21661;50.794;-1.066;2022-12-07T01:40:40;36.78;;;16.65;;
35558;SDS011;21661;50.794;-1.066;2022-12-07T01:43:24;34.95;;;15.70;;
35558;SDS011;21661;50.794;-1.066;2022-12-07T01:45:52;32.50;;;15.82;;
35558;SDS011;21661;50.794;-1.066;2022-12-07T01:48:19;31.85;;;15.70;;
35558;SDS011;21661;50.794;-1.066;2022-12-07T01:50:52;32.72;;;15.30;;
35558;SDS011;21661;50.794;-1.066;2022-12-07T01:53:19;33.00;;;15.80;;
35558;SDS011;21661;50.794;-1.066;2022-12-07T01:55:49;38.53;;;15.13;;
35558;SDS011;21661;50.794;-1.066;2022-12-07T01:58:18;31.55;;;14.45;;
35558;SDS011;21661;50.794;-1.066;2022-12-07T02:00:44;35.83;;;14.70;;
35558;SDS011;21661;50.794;-1.066;2022-12-07T02:03:18;30.48;;;14.32;;
35558;SDS011;21661;50.794;-1.066;2022-12-07T02:05:49;30.15;;;13.95;;
35558;SDS011;21661;50.794;-1.066;2022-12-07T02:08:16;25.30;;;12.65;;
35558;SDS011;21661;50.794;-1.066;2022-12-07T02:10:42;29.50;;;13.48;;
35558;SDS011;21661;50.794;-1.066;2022-12-07T02:18:19;31.27;;;13.80;;
35558;SDS011;21661;50.794;-1.066;2022-12-07T02:20:51;35.15;;;14.52;;
35558;SDS011;21661;50.794;-1.066;2022-12-07T02:24:14;29.05;;;12.73;;
35558;SDS011;21661;50.794;-1.066;2022-12-07T02:29:20;22.05;;;12.65;;
35558;SDS011;21661;50.794;-1.066;2022-12-07T02:34:24;29.77;;;12.63;;
35558;SDS011;21661;50.794;-1.066;2022-12-07T02:36:53;29.02;;;13.00;;
35558;SDS011;21661;50.794;-1.066;2022-12-07T02:41:55;27.27;;;12.57;;
35558;SDS011;21661;50.794;-1.066;2022-12-07T02:44:27;27.40;;;12.35;;
35558;SDS011;21661;50.794;-1.066;2022-12-07T02:47:03;27.63;;;12.55;;
35558;SDS011;21661;50.794;-1.066;2022-12-07T02:49:31;24.63;;;11.85;;
35558;SDS011;21661;50.794;-1.066;2022-12-07T02:51:57;25.20;;;11.07;;
35558;SDS011;21661;50.794;-1.066;2022-12-07T02:54:23;22.42;;;10.40;;
35558;SDS011;21661;50.794;-1.066;2022-12-07T02:56:50;22.60;;;10.77;;
35558;SDS011;21661;50.794;-1.066;2022-12-07T03:07:33;20.13;;;9.90;;
35558;SDS011;21661;50.794;-1.066;2022-12-07T03:12:51;27.10;;;11.50;;
35558;SDS011;21661;50.794;-1.066;2022-12-07T03:18:22;18.63;;;9.57;;
35558;SDS011;21661;50.794;-1.066;2022-12-07T03:20:51;24.05;;;9.68;;
35558;SDS011;21661;50.794;-1.066;2022-12-07T03:23:20;18.70;;;9.18;;
35558;SDS011;21661;50.794;-1.066;2022-12-07T03:25:52;19.38;;;8.43;;
35558;SDS011;21661;50.794;-1.066;2022-12-07T03:30:50;22.38;;;10.70;;
35558;SDS011;21661;50.794;-1.066;2022-12-07T03:33:24;21.58;;;9.80;;
35558;SDS011;21661;50.794;-1.066;2022-12-07T03:36:06;21.85;;;9.93;;
35558;SDS011;21661;50.794;-1.066;2022-12-07T03:38:50;22.23;;;10.57;;
35558;SDS011;21661;50.794;-1.066;2022-12-07T03:41:27;34.13;;;11.48;;
35558;SDS011;21661;50.794;-1.066;2022-12-07T03:43:56;28.52;;;9.90;;
35558;SDS011;21661;50.794;-1.066;2022-12-07T03:49:10;21.88;;;8.98;;
35558;SDS011;21661;50.794;-1.066;2022-12-07T03:51:45;24.60;;;10.02;;
35558;SDS011;21661;50.794;-1.066;2022-12-07T03:54:21;20.17;;;8.82;;
35558;SDS011;21661;50.794;-1.066;2022-12-07T03:56:51;20.80;;;10.07;;
35558;SDS011;21661;50.794;-1.066;2022-12-07T03:59:18;26.35;;;10.43;;
35558;SDS011;21661;50.794;-1.066;2022-12-07T04:01:51;22.80;;;9.63;;
35558;SDS011;21661;50.794;-1.066;2022-12-07T04:04:19;22.92;;;10.55;;
35558;SDS011;21661;50.794;-1.066;2022-12-07T04:06:45;26.73;;;10.75;;
35558;SDS011;21661;50.794;-1.066;2022-12-07T04:09:10;22.10;;;11.93;;
35558;SDS011;21661;50.794;-1.066;2022-12-07T04:11:36;21.98;;;9.35;;
35558;SDS011;21661;50.794;-1.066;2022-12-07T04:14:01;23.13;;;10.40;;
35558;SDS011;21661;50.794;-1.066;2022-12-07T04:19:12;25.70;;;9.85;;
35558;SDS011;21661;50.794;-1.066;2022-12-07T04:21:38;22.38;;;9.68;;
35558;SDS011;21661;50.794;-1.066;2022-12-07T04:24:04;21.92;;;10.35;;
35558;SDS011;21661;50.794;-1.066;2022-12-07T04:26:30;22.92;;;10.02;;
35558;SDS011;21661;50.794;-1.066;2022-12-07T04:28:56;24.95;;;11.10;;
35558;SDS011;21661;50.794;-1.066;2022-12-07T04:31:22;27.13;;;11.15;;
35558;SDS011;21661;50.794;-1.066;2022-12-07T04:33:47;19.65;;;9.95;;
35558;SDS011;21661;50.794;-1.066;2022-12-07T04:36:13;21.10;;;8.95;;
35558;SDS011;21661;50.794;-1.066;2022-12-07T04:38:39;19.48;;;9.30;;
35558;SDS011;21661;50.794;-1.066;2022-12-07T04:41:05;17.35;;;8.55;;
35558;SDS011;21661;50.794;-1.066;2022-12-07T04:43:32;17.23;;;8.25;;
35558;SDS011;21661;50.794;-1.066;2022-12-07T04:45:58;20.77;;;9.20;;
35558;SDS011;21661;50.794;-1.066;2022-12-07T04:48:23;18.83;;;8.68;;
35558;SDS011;21661;50.794;-1.066;2022-12-07T04:50:49;18.17;;;8.70;;
35558;SDS011;21661;50.794;-1.066;2022-12-07T04:53:15;16.42;;;8.73;;
35558;SDS011;21661;50.794;-1.066;2022-12-07T04:55:40;22.05;;;9.63;;
35558;SDS011;21661;50.794;-1.066;2022-12-07T04:58:06;23.10;;;9.95;;
35558;SDS011;21661;50.794;-1.066;2022-12-07T05:00:32;19.60;;;9.45;;
35558;SDS011;21661;50.794;-1.066;2022-12-07T05:02:57;28.25;;;9.82;;
35558;SDS011;21661;50.794;-1.066;2022-12-07T05:05:23;21.13;;;10.98;;
35558;SDS011;21661;50.794;-1.066;2022-12-07T05:07:49;20.85;;;9.73;;
35558;SDS011;21661;50.794;-1.066;2022-12-07T05:10:15;18.73;;;8.20;;
35558;SDS011;21661;50.794;-1.066;2022-12-07T05:12:40;18.90;;;7.97;;
35558;SDS011;21661;50.794;-1.066;2022-12-07T05:15:06;29.15;;;9.65;;
35558;SDS011;21661;50.794;-1.066;2022-12-07T05:17:32;20.40;;;8.48;;
35558;SDS011;21661;50.794;-1.066;2022-12-07T05:19:57;18.45;;;8.25;;
35558;SDS011;21661;50.794;-1.066;2022-12-07T05:22:23;16.98;;;7.95;;
35558;SDS011;21661;50.794;-1.066;2022-12-07T05:24:53;15.90;;;8.18;;
35558;SDS011;21661;50.794;-1.066;2022-12-07T05:27:19;17.55;;;7.90;;
35558;SDS011;21661;50.794;-1.066;2022-12-07T05:29:44;18.05;;;8.07;;
35558;SDS011;21661;50.794;-1.066;2022-12-07T05:32:10;20.23;;;8.43;;
35558;SDS011;21661;50.794;-1.066;2022-12-07T05:34:36;19.73;;;8.35;;
35558;SDS011;21661;50.794;-1.066;2022-12-07T05:37:01;20.42;;;9.00;;
35558;SDS011;21661;50.794;-1.066;2022-12-07T05:39:27;26.40;;;10.52;;
35558;SDS011;21661;50.794;-1.066;2022-12-07T05:41:52;21.05;;;9.10;;
35558;SDS011;21661;50.794;-1.066;2022-12-07T05:44:36;25.48;;;10.38;;
35558;SDS011;21661;50.794;-1.066;2022-12-07T05:47:02;25.00;;;10.43;;
35558;SDS011;21661;50.794;-1.066;2022-12-07T05:49:28;19.20;;;9.68;;
35558;SDS011;21661;50.794;-1.066;2022-12-07T05:51:53;23.60;;;10.65;;
35558;SDS011;21661;50.794;-1.066;2022-12-07T05:54:19;24.10;;;10.00;;
35558;SDS011;21661;50.794;-1.066;2022-12-07T05:56:45;22.98;;;10.63;;
35558;SDS011;21661;50.794;-1.066;2022-12-07T05:59:10;30.30;;;12.02;;
35558;SDS011;21661;50.794;-1.066;2022-12-07T06:01:49;32.10;;;12.02;;
35558;SDS011;21661;50.794;-1.066;2022-12-07T06:04:25;28.23;;;12.75;;
35558;SDS011;21661;50.794;-1.066;2022-12-07T06:06:52;25.38;;;11.60;;
35558;SDS011;21661;50.794;-1.066;2022-12-07T06:09:18;23.25;;;10.95;;
35558;SDS011;21661;50.794;-1.066;2022-12-07T06:11:45;23.05;;;9.70;;
35558;SDS011;21661;50.794;-1.066;2022-12-07T06:14:30;22.27;;;10.23;;
35558;SDS011;21661;50.794;-1.066;2022-12-07T06:16:56;24.77;;;9.38;;
35558;SDS011;21661;50.794;-1.066;2022-12-07T06:19:21;24.27;;;9.52;;
35558;SDS011;21661;50.794;-1.066;2022-12-07T06:21:47;26.90;;;11.77;;
35558;SDS011;21661;50.794;-1.066;2022-12-07T06:24:13;27.95;;;12.02;;
35558;SDS011;21661;50.794;-1.066;2022-12-07T06:26:40;22.55;;;11.27;;
35558;SDS011;21661;50.794;-1.066;2022-12-07T06:29:06;33.75;;;11.27;;
35558;SDS011;21661;50.794;-1.066;2022-12-07T06:31:32;30.30;;;10.75;;
35558;SDS011;21661;50.794;-1.066;2022-12-07T06:33:58;25.33;;;11.10;;
35558;SDS011;21661;50.794;-1.066;2022-12-07T06:36:24;25.58;;;10.75;;
35558;SDS011;21661;50.794;-1.066;2022-12-07T06:38:50;24.05;;;9.88;;
35558;SDS011;21661;50.794;-1.066;2022-12-07T06:41:16;20.50;;;10.65;;
35558;SDS011;21661;50.794;-1.066;2022-12-07T06:43:41;25.52;;;9.95;;
35558;SDS011;21661;50.794;-1.066;2022-12-07T06:46:07;20.95;;;10.35;;
35558;SDS011;21661;50.794;-1.066;2022-12-07T06:48:33;34.08;;;12.93;;
35558;SDS011;21661;50.794;-1.066;2022-12-07T06:50:58;28.45;;;12.00;;
35558;SDS011;21661;50.794;-1.066;2022-12-07T06:53:24;26.33;;;11.15;;
35558;SDS011;21661;50.794;-1.066;2022-12-07T06:55:50;24.75;;;11.52;;
35558;SDS011;21661;50.794;-1.066;2022-12-07T06:58:16;23.85;;;11.00;;
35558;SDS011;21661;50.794;-1.066;2022-12-07T07:00:42;24.35;;;11.25;;
35558;SDS011;21661;50.794;-1.066;2022-12-07T07:03:08;26.13;;;11.93;;
35558;SDS011;21661;50.794;-1.066;2022-12-07T07:05:33;23.05;;;10.45;;
35558;SDS011;21661;50.794;-1.066;2022-12-07T07:07:59;22.85;;;10.35;;
35558;SDS011;21661;50.794;-1.066;2022-12-07T07:10:25;26.42;;;11.65;;
35558;SDS011;21661;50.794;-1.066;2022-12-07T07:12:50;22.92;;;10.65;;
35558;SDS011;21661;50.794;-1.066;2022-12-07T07:15:16;23.88;;;10.50;;
35558;SDS011;21661;50.794;-1.066;2022-12-07T07:17:42;26.00;;;10.48;;
35558;SDS011;21661;50.794;-1.066;2022-12-07T07:20:08;21.67;;;11.25;;
35558;SDS011;21661;50.794;-1.066;2022-12-07T07:22:34;28.63;;;11.60;;
35558;SDS011;21661;50.794;-1.066;2022-12-07T07:24:59;22.45;;;9.93;;
35558;SDS011;21661;50.794;-1.066;2022-12-07T07:27:25;23.58;;;9.77;;
35558;SDS011;21661;50.794;-1.066;2022-12-07T07:29:51;22.70;;;10.70;;
35558;SDS011;21661;50.794;-1.066;2022-12-07T07:32:16;21.02;;;9.90;;
35558;SDS011;21661;50.794;-1.066;2022-12-07T07:34:42;22.73;;;11.07;;
35558;SDS011;21661;50.794;-1.066;2022-12-07T07:37:07;23.77;;;10.35;;
35558;SDS011;21661;50.794;-1.066;2022-12-07T07:39:33;23.20;;;10.63;;
35558;SDS011;21661;50.794;-1.066;2022-12-07T07:41:59;21.13;;;9.55;;
35558;SDS011;21661;50.794;-1.066;2022-12-07T07:44:24;19.63;;;9.23;;
35558;SDS011;21661;50.794;-1.066;2022-12-07T07:46:50;20.08;;;8.90;;
35558;SDS011;21661;50.794;-1.066;2022-12-07T07:49:15;19.98;;;8.52;;
35558;SDS011;21661;50.794;-1.066;2022-12-07T07:51:41;20.63;;;9.52;;
35558;SDS011;21661;50.794;-1.066;2022-12-07T07:54:06;19.17;;;9.82;;
35558;SDS011;21661;50.794;-1.066;2022-12-07T07:56:32;28.85;;;9.43;;
35558;SDS011;21661;50.794;-1.066;2022-12-07T07:58:58;24.73;;;10.30;;
35558;SDS011;21661;50.794;-1.066;2022-12-07T08:01:23;22.27;;;9.50;;
35558;SDS011;21661;50.794;-1.066;2022-12-07T08:03:49;24.73;;;10.10;;
35558;SDS011;21661;50.794;-1.066;2022-12-07T08:06:15;24.90;;;10.77;;
35558;SDS011;21661;50.794;-1.066;2022-12-07T08:08:40;23.38;;;10.20;;
35558;SDS011;21661;50.794;-1.066;2022-12-07T08:11:07;27.77;;;10.90;;
35558;SDS011;21661;50.794;-1.066;2022-12-07T08:13:34;25.10;;;11.02;;
35558;SDS011;21661;50.794;-1.066;2022-12-07T08:16:03;24.80;;;11.18;;
35558;SDS011;21661;50.794;-1.066;2022-12-07T08:18:37;21.67;;;10.30;;
35558;SDS011;21661;50.794;-1.066;2022-12-07T08:21:04;26.80;;;11.32;;
35558;SDS011;21661;50.794;-1.066;2022-12-07T08:23:32;24.50;;;10.65;;
35558;SDS011;21661;50.794;-1.066;2022-12-07T08:26:09;22.92;;;10.02;;
35558;SDS011;21661;50.794;-1.066;2022-12-07T08:28:37;24.52;;;10.07;;
35558;SDS011;21661;50.794;-1.066;2022-12-07T08:31:04;33.20;;;11.80;;
35558;SDS011;21661;50.794;-1.066;2022-12-07T08:33:32;26.45;;;10.82;;
35558;SDS011;21661;50.794;-1.066;2022-12-07T08:36:02;25.63;;;11.02;;
35558;SDS011;21661;50.794;-1.066;2022-12-07T08:38:29;22.02;;;10.20;;
35558;SDS011;21661;50.794;-1.066;2022-12-07T08:40:58;23.73;;;9.48;;
35558;SDS011;21661;50.794;-1.066;2022-12-07T08:43:24;23.05;;;11.10;;
35558;SDS011;21661;50.794;-1.066;2022-12-07T08:45:53;27.88;;;11.18;;
35558;SDS011;21661;50.794;-1.066;2022-12-07T08:48:50;27.60;;;11.00;;
35558;SDS011;21661;50.794;-1.066;2022-12-07T08:51:20;25.38;;;10.57;;
35558;SDS011;21661;50.794;-1.066;2022-12-07T08:53:47;31.75;;;12.45;;
35558;SDS011;21661;50.794;-1.066;2022-12-07T08:56:14;24.65;;;11.77;;
35558;SDS011;21661;50.794;-1.066;2022-12-07T08:58:41;28.75;;;12.13;;
35558;SDS011;21661;50.794;-1.066;2022-12-07T09:01:07;32.10;;;13.27;;
35558;SDS011;21661;50.794;-1.066;2022-12-07T09:03:33;26.40;;;12.00;;
35558;SDS011;21661;50.794;-1.066;2022-12-07T09:05:58;28.55;;;13.05;;
35558;SDS011;21661;50.794;-1.066;2022-12-07T09:08:26;27.20;;;11.48;;
35558;SDS011;21661;50.794;-1.066;2022-12-07T09:10:59;26.90;;;11.65;;
35558;SDS011;21661;50.794;-1.066;2022-12-07T09:13:25;25.65;;;11.85;;
35558;SDS011;21661;50.794;-1.066;2022-12-07T09:15:51;28.05;;;13.27;;
35558;SDS011;21661;50.794;-1.066;2022-12-07T09:18:16;25.92;;;11.40;;
35558;SDS011;21661;50.794;-1.066;2022-12-07T09:20:42;30.95;;;11.95;;
35558;SDS011;21661;50.794;-1.066;2022-12-07T09:23:07;31.52;;;12.93;;
35558;SDS011;21661;50.794;-1.066;2022-12-07T09:25:34;27.75;;;11.50;;
35558;SDS011;21661;50.794;-1.066;2022-12-07T09:27:59;24.13;;;11.85;;
35558;SDS011;21661;50.794;-1.066;2022-12-07T09:30:26;26.00;;;11.88;;
35558;SDS011;21661;50.794;-1.066;2022-12-07T09:32:52;22.83;;;10.10;;
35558;SDS011;21661;50.794;-1.066;2022-12-07T09:35:19;26.98;;;10.05;;
35558;SDS011;21661;50.794;-1.066;2022-12-07T09:37:45;22.58;;;10.55;;
35558;SDS011;21661;50.794;-1.066;2022-12-07T09:40:10;22.65;;;10.50;;
35558;SDS011;21661;50.794;-1.066;2022-12-07T09:42:41;22.83;;;10.27;;
35558;SDS011;21661;50.794;-1.066;2022-12-07T09:45:15;25.77;;;11.27;;
35558;SDS011;21661;50.794;-1.066;2022-12-07T09:47:55;22.15;;;10.45;;
35558;SDS011;21661;50.794;-1.066;2022-12-07T09:50:23;21.85;;;10.07;;
35558;SDS011;21661;50.794;-1.066;2022-12-07T09:52:51;20.88;;;10.38;;
35558;SDS011;21661;50.794;-1.066;2022-12-07T09:55:26;20.00;;;9.40;;
35558;SDS011;21661;50.794;-1.066;2022-12-07T09:57:53;20.38;;;10.00;;
35558;SDS011;21661;50.794;-1.066;2022-12-07T10:00:21;18.90;;;10.20;;
35558;SDS011;21661;50.794;-1.066;2022-12-07T10:03:00;19.73;;;9.77;;
35558;SDS011;21661;50.794;-1.066;2022-12-07T10:05:28;20.50;;;9.20;;
35558;SDS011;21661;50.794;-1.066;2022-12-07T10:07:57;21.23;;;8.48;;
35558;SDS011;21661;50.794;-1.066;2022-12-07T10:10:24;24.25;;;10.05;;
35558;SDS011;21661;50.794;-1.066;2022-12-07T10:12:56;20.60;;;9.98;;
35558;SDS011;21661;50.794;-1.066;2022-12-07T10:16:03;20.30;;;10.10;;
35558;SDS011;21661;50.794;-1.066;2022-12-07T10:18:34;21.60;;;10.13;;
35558;SDS011;21661;50.794;-1.066;2022-12-07T10:21:19;23.77;;;10.63;;
35558;SDS011;21661;50.794;-1.066;2022-12-07T10:24:04;25.15;;;10.57;;
35558;SDS011;21661;50.794;-1.066;2022-12-07T10:31:41;22.80;;;11.07;;
35558;SDS011;21661;50.794;-1.066;2022-12-07T10:34:22;25.33;;;12.23;;
35558;SDS011;21661;50.794;-1.066;2022-12-07T10:39:43;22.33;;;10.60;;
35558;SDS011;21661;50.794;-1.066;2022-12-07T10:42:23;27.55;;;11.60;;
35558;SDS011;21661;50.794;-1.066;2022-12-07T10:44:49;23.05;;;9.65;;
35558;SDS011;21661;50.794;-1.066;2022-12-07T10:47:50;18.03;;;9.33;;
35558;SDS011;21661;50.794;-1.066;2022-12-07T10:56:04;16.63;;;9.55;;
35558;SDS011;21661;50.794;-1.066;2022-12-07T11:01:37;24.25;;;10.63;;
35558;SDS011;21661;50.794;-1.066;2022-12-07T11:09:30;25.27;;;11.15;;
35558;SDS011;21661;50.794;-1.066;2022-12-07T11:18:03;24.42;;;9.85;;
35558;SDS011;21661;50.794;-1.066;2022-12-07T11:26:34;18.88;;;8.73;;
35558;SDS011;21661;50.794;-1.066;2022-12-07T11:32:26;19.70;;;9.20;;
35558;SDS011;21661;50.794;-1.066;2022-12-07T11:35:05;23.33;;;9.85;;
35558;SDS011;21661;50.794;-1.066;2022-12-07T11:37:40;20.98;;;10.05;;
35558;SDS011;21661;50.794;-1.066;2022-12-07T11:40:28;23.42;;;10.15;;
35558;SDS011;21661;50.794;-1.066;2022-12-07T11:43:10;23.95;;;9.38;;
35558;SDS011;21661;50.794;-1.066;2022-12-07T11:45:43;26.98;;;9.95;;
35558;SDS011;21661;50.794;-1.066;2022-12-07T11:50:47;22.88;;;10.93;;
35558;SDS011;21661;50.794;-1.066;2022-12-07T11:53:19;21.02;;;9.45;;
35558;SDS011;21661;50.794;-1.066;2022-12-07T12:03:49;20.95;;;9.20;;
35558;SDS011;21661;50.794;-1.066;2022-12-07T12:06:17;17.08;;;7.43;;
35558;SDS011;21661;50.794;-1.066;2022-12-07T12:09:06;16.15;;;8.55;;
35558;SDS011;21661;50.794;-1.066;2022-12-07T12:22:55;15.85;;;8.27;;
35558;SDS011;21661;50.794;-1.066;2022-12-07T12:25:26;18.10;;;8.68;;
35558;SDS011;21661;50.794;-1.066;2022-12-07T12:27:56;21.00;;;8.30;;
35558;SDS011;21661;50.794;-1.066;2022-12-07T12:30:26;19.95;;;8.32;;
35558;SDS011;21661;50.794;-1.066;2022-12-07T12:33:03;17.55;;;7.63;;
35558;SDS011;21661;50.794;-1.066;2022-12-07T12:35:38;17.98;;;7.80;;
35558;SDS011;21661;50.794;-1.066;2022-12-07T12:40:44;17.40;;;9.85;;
35558;SDS011;21661;50.794;-1.066;2022-12-07T12:44:11;15.45;;;7.43;;
35558;SDS011;21661;50.794;-1.066;2022-12-07T12:51:41;16.00;;;6.28;;
35558;SDS011;21661;50.794;-1.066;2022-12-07T12:54:20;14.65;;;5.65;;
35558;SDS011;21661;50.794;-1.066;2022-12-07T12:59:55;23.35;;;5.45;;
35558;SDS011;21661;50.794;-1.066;2022-12-07T13:18:03;12.70;;;4.70;;
35558;SDS011;21661;50.794;-1.066;2022-12-07T13:34:36;13.25;;;4.18;;
35558;SDS011;21661;50.794;-1.066;2022-12-07T13:37:10;12.73;;;4.03;;
35558;SDS011;21661;50.794;-1.066;2022-12-07T13:42:19;8.93;;;3.35;;
35558;SDS011;21661;50.794;-1.066;2022-12-07T13:44:54;7.50;;;3.00;;
35558;SDS011;21661;50.794;-1.066;2022-12-07T13:47:41;7.53;;;3.63;;
35558;SDS011;21661;50.794;-1.066;2022-12-07T13:50:29;7.80;;;3.03;;
35558;SDS011;21661;50.794;-1.066;2022-12-07T13:52:57;10.68;;;3.08;;
35558;SDS011;21661;50.794;-1.066;2022-12-07T13:55:25;8.65;;;2.90;;
35558;SDS011;21661;50.794;-1.066;2022-12-07T13:57:52;11.65;;;3.13;;
35558;SDS011;21661;50.794;-1.066;2022-12-07T14:00:25;11.70;;;2.50;;
35558;SDS011;21661;50.794;-1.066;2022-12-07T14:03:00;9.73;;;2.90;;
35558;SDS011;21661;50.794;-1.066;2022-12-07T14:05:32;9.55;;;2.67;;
35558;SDS011;21661;50.794;-1.066;2022-12-07T14:08:00;6.78;;;2.40;;
35558;SDS011;21661;50.794;-1.066;2022-12-07T14:12:56;7.07;;;2.40;;
35558;SDS011;21661;50.794;-1.066;2022-12-07T14:15:24;7.90;;;2.83;;
35558;SDS011;21661;50.794;-1.066;2022-12-07T14:17:58;7.70;;;2.28;;
35558;SDS011;21661;50.794;-1.066;2022-12-07T14:23:00;7.70;;;2.67;;
35558;SDS011;21661;50.794;-1.066;2022-12-07T14:25:43;8.73;;;2.03;;
35558;SDS011;21661;50.794;-1.066;2022-12-07T14:31:21;8.32;;;1.73;;
35558;SDS011;21661;50.794;-1.066;2022-12-07T14:33:49;7.35;;;2.28;;
35558;SDS011;21661;50.794;-1.066;2022-12-07T14:36:14;6.10;;;2.28;;
35558;SDS011;21661;50.794;-1.066;2022-12-07T14:38:40;5.00;;;1.98;;
35558;SDS011;21661;50.794;-1.066;2022-12-07T14:41:10;9.00;;;1.90;;
35558;SDS011;21661;50.794;-1.066;2022-12-07T14:43:58;10.98;;;2.63;;
35558;SDS011;21661;50.794;-1.066;2022-12-07T14:46:24;7.30;;;2.80;;
35558;SDS011;21661;50.794;-1.066;2022-12-07T14:48:49;13.10;;;2.53;;
35558;SDS011;21661;50.794;-1.066;2022-12-07T14:51:15;8.63;;;3.22;;
35558;SDS011;21661;50.794;-1.066;2022-12-07T14:53:42;8.10;;;2.90;;
35558;SDS011;21661;50.794;-1.066;2022-12-07T14:56:12;8.45;;;2.58;;
35558;SDS011;21661;50.794;-1.066;2022-12-07T14:58:38;7.78;;;2.80;;
35558;SDS011;21661;50.794;-1.066;2022-12-07T15:01:05;9.98;;;2.40;;
35558;SDS011;21661;50.794;-1.066;2022-12-07T15:03:31;11.60;;;2.58;;
35558;SDS011;21661;50.794;-1.066;2022-12-07T15:05:56;11.93;;;3.38;;
35558;SDS011;21661;50.794;-1.066;2022-12-07T15:08:22;6.40;;;2.78;;
35558;SDS011;21661;50.794;-1.066;2022-12-07T15:10:48;12.55;;;3.20;;
35558;SDS011;21661;50.794;-1.066;2022-12-07T15:13:14;9.82;;;2.90;;
35558;SDS011;21661;50.794;-1.066;2022-12-07T15:15:58;13.02;;;3.50;;
35558;SDS011;21661;50.794;-1.066;2022-12-07T15:18:25;11.52;;;3.80;;
35558;SDS011;21661;50.794;-1.066;2022-12-07T15:20:50;10.15;;;3.28;;
35558;SDS011;21661;50.794;-1.066;2022-12-07T15:23:16;9.00;;;2.83;;
35558;SDS011;21661;50.794;-1.066;2022-12-07T15:25:43;8.25;;;3.25;;
35558;SDS011;21661;50.794;-1.066;2022-12-07T15:28:09;7.72;;;2.45;;
35558;SDS011;21661;50.794;-1.066;2022-12-07T15:30:39;11.57;;;2.95;;
35558;SDS011;21661;50.794;-1.066;2022-12-07T15:33:07;7.03;;;3.00;;
35558;SDS011;21661;50.794;-1.066;2022-12-07T15:35:37;10.40;;;2.60;;
35558;SDS011;21661;50.794;-1.066;2022-12-07T15:38:07;8.57;;;2.92;;
35558;SDS011;21661;50.794;-1.066;2022-12-07T15:40:33;8.05;;;2.65;;
35558;SDS011;21661;50.794;-1.066;2022-12-07T15:42:59;7.00;;;2.83;;
35558;SDS011;21661;50.794;-1.066;2022-12-07T15:45:25;9.55;;;2.80;;
35558;SDS011;21661;50.794;-1.066;2022-12-07T15:47:51;7.25;;;2.97;;
35558;SDS011;21661;50.794;-1.066;2022-12-07T15:50:17;9.70;;;3.05;;
35558;SDS011;21661;50.794;-1.066;2022-12-07T15:52:42;6.53;;;2.40;;
35558;SDS011;21661;50.794;-1.066;2022-12-07T15:55:08;12.60;;;2.72;;
35558;SDS011;21661;50.794;-1.066;2022-12-07T15:57:35;9.10;;;3.55;;
35558;SDS011;21661;50.794;-1.066;2022-12-07T16:00:02;14.23;;;3.20;;
35558;SDS011;21661;50.794;-1.066;2022-12-07T16:02:29;10.27;;;2.85;;
35558;SDS011;21661;50.794;-1.066;2022-12-07T16:04:54;7.85;;;2.55;;
35558;SDS011;21661;50.794;-1.066;2022-12-07T16:07:20;7.18;;;2.90;;
35558;SDS011;21661;50.794;-1.066;2022-12-07T16:09:46;9.30;;;3.50;;
35558;SDS011;21661;50.794;-1.066;2022-12-07T16:12:12;6.07;;;2.58;;
35558;SDS011;21661;50.794;-1.066;2022-12-07T16:14:38;9.50;;;3.42;;
35558;SDS011;21661;50.794;-1.066;2022-12-07T16:17:05;11.43;;;3.30;;
35558;SDS011;21661;50.794;-1.066;2022-12-07T16:19:31;8.07;;;2.72;;
35558;SDS011;21661;50.794;-1.066;2022-12-07T16:21:58;9.38;;;2.30;;
35558;SDS011;21661;50.794;-1.066;2022-12-07T16:24:24;6.18;;;2.75;;
35558;SDS011;21661;50.794;-1.066;2022-12-07T16:26:50;8.25;;;2.40;;
35558;SDS011;21661;50.794;-1.066;2022-12-07T16:29:17;10.13;;;2.95;;
35558;SDS011;21661;50.794;-1.066;2022-12-07T16:31:44;9.73;;;3.50;;
35558;SDS011;21661;50.794;-1.066;2022-12-07T16:34:09;10.25;;;4.00;;
35558;SDS011;21661;50.794;-1.066;2022-12-07T16:36:35;8.75;;;3.42;;
35558;SDS011;21661;50.794;-1.066;2022-12-07T16:39:01;12.85;;;3.50;;
35558;SDS011;21661;50.794;-1.066;2022-12-07T16:41:27;9.73;;;2.83;;
35558;SDS011;21661;50.794;-1.066;2022-12-07T16:43:53;8.43;;;2.80;;
35558;SDS011;21661;50.794;-1.066;2022-12-07T16:46:18;11.27;;;3.58;;
35558;SDS011;21661;50.794;-1.066;2022-12-07T16:48:44;14.05;;;3.50;;
35558;SDS011;21661;50.794;-1.066;2022-12-07T16:51:11;8.15;;;3.35;;